sensor_id;sensor_type;location;lat;lon;timestamp;pressure;altitude;pressure_sealevel;temperature;humidity
58421;BME280;44218;55.250;30.178;2022-10-16T00:03:50;1027.5;;;8.4;67
58421;BME280;44218;55.250;30.178;2022-10-16T00:09:19;1027.5;;;8.4;67.2
58421;BME280;44218;55.250;30.178;2022-10-16T00:14:14;1027.4;;;8.4;67.3
58421;BME280;44218;55.250;30.178;2022-10-16T00:19:01;1027.4;;;8.4;66.8
58421;BME280;44218;55.250;30.178;2022-10-16T00:24:11;1027.4;;;8.5;67.3
58421;BME280;44218;55.250;30.178;2022-10-16T00:29:13;1027.4;;;8.5;67.2
58421;BME280;44218;55.250;30.178;2022-10-16T00:34:23;1027.4;;;8.5;67
58421;BME280;44218;55.250;30.178;2022-10-16T00:38:59;1027.4;;;8.6;67.2
58421;BME280;44218;55.250;30.178;2022-10-16T00:43:39;1027.4;;;8.6;67.5
58421;BME280;44218;55.250;30.178;2022-10-16T00:49:21;1027.4;;;8.6;67.4
58421;BME280;44218;55.250;30.178;2022-10-16T00:54:13;1027.4;;;8.6;67.4
58421;BME280;44218;55.250;30.178;2022-10-16T00:58:59;1027.4;;;8.6;67.3
58421;BME280;44218;55.250;30.178;2022-10-16T01:04:11;1027.4;;;8.6;67.3
58421;BME280;44218;55.250;30.178;2022-10-16T01:09:13;1027.3;;;8.6;67
58421;BME280;44218;55.250;30.178;2022-10-16T01:13:38;1027.4;;;8.6;67.4
58421;BME280;44218;55.250;30.178;2022-10-16T01:19:12;1027.4;;;8.6;67
58421;BME280;44218;55.250;30.178;2022-10-16T01:24:27;1027.4;;;8.6;67.7
58421;BME280;44218;55.250;30.178;2022-10-16T01:28:38;1027.4;;;8.6;67.7
58421;BME280;44218;55.250;30.178;2022-10-16T01:33:59;1027.3;;;8.7;67.5
58421;BME280;44218;55.250;30.178;2022-10-16T01:39:23;1027.3;;;8.6;67.3
58421;BME280;44218;55.250;30.178;2022-10-16T01:44:24;1027.3;;;8.7;67
58421;BME280;44218;55.250;30.178;2022-10-16T01:49:24;1027.3;;;8.7;67
58421;BME280;44218;55.250;30.178;2022-10-16T01:53:37;1027.3;;;8.7;67
58421;BME280;44218;55.250;30.178;2022-10-16T01:59:21;1027.3;;;8.7;67
58421;BME280;44218;55.250;30.178;2022-10-16T02:04:24;1027.3;;;8.7;66.7
58421;BME280;44218;55.250;30.178;2022-10-16T02:08:57;1027.3;;;8.7;66.4
58421;BME280;44218;55.250;30.178;2022-10-16T02:13:39;1027.3;;;8.8;66.5
58421;BME280;44218;55.250;30.178;2022-10-16T02:18:59;1027.2;;;8.8;66.2
58421;BME280;44218;55.250;30.178;2022-10-16T02:23:50;1027.3;;;8.8;66.2
58421;BME280;44218;55.250;30.178;2022-10-16T02:29:00;1027.3;;;8.9;65.8
58421;BME280;44218;55.250;30.178;2022-10-16T02:33:59;1027.3;;;8.9;65.7
58421;BME280;44218;55.250;30.178;2022-10-16T02:39:21;1027.2;;;8.9;65.9
58421;BME280;44218;55.250;30.178;2022-10-16T02:44:11;1027.2;;;9;65.8
58421;BME280;44218;55.250;30.178;2022-10-16T02:49:25;1027.2;;;9;65.6
58421;BME280;44218;55.250;30.178;2022-10-16T02:54:13;1027.2;;;9;65.4
58421;BME280;44218;55.250;30.178;2022-10-16T02:59:13;1027.2;;;9;65.4
58421;BME280;44218;55.250;30.178;2022-10-16T03:04:27;1027.3;;;9;65.6
58421;BME280;44218;55.250;30.178;2022-10-16T03:08:39;1027.3;;;9.1;64.9
58421;BME280;44218;55.250;30.178;2022-10-16T03:13:39;1027.3;;;9.1;65.1
58421;BME280;44218;55.250;30.178;2022-10-16T03:18:48;1027.3;;;9.1;64.7
58421;BME280;44218;55.250;30.178;2022-10-16T03:24:25;1027.3;;;9.1;64.8
58421;BME280;44218;55.250;30.178;2022-10-16T03:29:15;1027.3;;;9.1;64.5
58421;BME280;44218;55.250;30.178;2022-10-16T03:34:15;1027.4;;;9.1;64.8
58421;BME280;44218;55.250;30.178;2022-10-16T03:39:13;1027.4;;;9.1;64.5
58421;BME280;44218;55.250;30.178;2022-10-16T03:44:15;1027.4;;;9.1;64.3
58421;BME280;44218;55.250;30.178;2022-10-16T03:49:03;1027.5;;;9.1;64.6
58421;BME280;44218;55.250;30.178;2022-10-16T03:54:15;1027.5;;;9.1;64.5
58421;BME280;44218;55.250;30.178;2022-10-16T03:58:49;1027.6;;;9.1;64.3
58421;BME280;44218;55.250;30.178;2022-10-16T04:04:03;1027.6;;;9.1;64.7
58421;BME280;44218;55.250;30.178;2022-10-16T04:09:02;1027.6;;;9.1;64.5
58421;BME280;44218;55.250;30.178;2022-10-16T04:14:25;1027.6;;;9;64.6
58421;BME280;44218;55.250;30.178;2022-10-16T04:19:15;1027.6;;;9;64.5
58421;BME280;44218;55.250;30.178;2022-10-16T04:24:05;1027.6;;;9;64.9
58421;BME280;44218;55.250;30.178;2022-10-16T04:29:05;1027.5;;;9;65.1
58421;BME280;44218;55.250;30.178;2022-10-16T04:34:17;1027.6;;;9;67
58421;BME280;44218;55.250;30.178;2022-10-16T04:39:29;1027.6;;;8.8;69.8
58421;BME280;44218;55.250;30.178;2022-10-16T04:44:03;1027.6;;;8.7;71.4
58421;BME280;44218;55.250;30.178;2022-10-16T04:48:39;1027.6;;;8.6;72
58421;BME280;44218;55.250;30.178;2022-10-16T04:53:53;1027.6;;;8.5;73.7
58421;BME280;44218;55.250;30.178;2022-10-16T04:59:18;1027.6;;;8.5;74.1
58421;BME280;44218;55.250;30.178;2022-10-16T05:03:49;1027.6;;;8.4;74.1
58421;BME280;44218;55.250;30.178;2022-10-16T05:08:39;1027.5;;;8.4;74.6
58421;BME280;44218;55.250;30.178;2022-10-16T05:14:17;1027.6;;;8.4;74.4
58421;BME280;44218;55.250;30.178;2022-10-16T05:19:29;1027.5;;;8.4;74.3
58421;BME280;44218;55.250;30.178;2022-10-16T05:24:05;1027.5;;;8.4;74.4
58421;BME280;44218;55.250;30.178;2022-10-16T05:29:27;1027.4;;;8.3;73.8
58421;BME280;44218;55.250;30.178;2022-10-16T05:34:29;1027.4;;;8.2;74.2
58421;BME280;44218;55.250;30.178;2022-10-16T05:38:39;1027.5;;;8.2;74.4
58421;BME280;44218;55.250;30.178;2022-10-16T05:43:39;1027.4;;;8.3;74
58421;BME280;44218;55.250;30.178;2022-10-16T05:48:39;1027.5;;;8.3;74.3
58421;BME280;44218;55.250;30.178;2022-10-16T05:54:27;1027.5;;;8.4;74.2
58421;BME280;44218;55.250;30.178;2022-10-16T05:59:17;1027.6;;;8.5;74
58421;BME280;44218;55.250;30.178;2022-10-16T06:04:17;1027.6;;;8.5;73.8
58421;BME280;44218;55.250;30.178;2022-10-16T06:09:14;1027.8;;;8.5;73.2
58421;BME280;44218;55.250;30.178;2022-10-16T06:14:17;1027.8;;;8.7;73.1
58421;BME280;44218;55.250;30.178;2022-10-16T06:19:17;1027.8;;;8.8;72.6
58421;BME280;44218;55.250;30.178;2022-10-16T06:24:15;1027.8;;;8.8;72.4
58421;BME280;44218;55.250;30.178;2022-10-16T06:28:49;1027.9;;;8.9;72.6
58421;BME280;44218;55.250;30.178;2022-10-16T06:33:40;1027.9;;;9;72.2
58421;BME280;44218;55.250;30.178;2022-10-16T06:38:49;1028;;;9.1;71.1
58421;BME280;44218;55.250;30.178;2022-10-16T06:44:27;1028;;;9.2;70.7
58421;BME280;44218;55.250;30.178;2022-10-16T06:49:15;1028;;;9.2;70.8
58421;BME280;44218;55.250;30.178;2022-10-16T06:54:01;1028;;;9.4;69.5
58421;BME280;44218;55.250;30.178;2022-10-16T06:58:50;1028;;;9.5;69.8
58421;BME280;44218;55.250;30.178;2022-10-16T07:04:07;1028.1;;;9.6;70.2
58421;BME280;44218;55.250;30.178;2022-10-16T07:09:29;1028.1;;;9.8;69.1
58421;BME280;44218;55.250;30.178;2022-10-16T07:13:53;1028.2;;;10;68.9
58421;BME280;44218;55.250;30.178;2022-10-16T07:19:05;1028.3;;;10.2;67.1
58421;BME280;44218;55.250;30.178;2022-10-16T07:23:54;1028.2;;;10.6;66.8
58421;BME280;44218;55.250;30.178;2022-10-16T07:28:53;1028.3;;;10.9;66.8
58421;BME280;44218;55.250;30.178;2022-10-16T07:34:03;1028.4;;;11.3;65
58421;BME280;44218;55.250;30.178;2022-10-16T07:39:03;1028.3;;;11.5;64.8
58421;BME280;44218;55.250;30.178;2022-10-16T07:44:27;1028.3;;;11.6;64
58421;BME280;44218;55.250;30.178;2022-10-16T07:49:15;1028.4;;;11.8;63.5
58421;BME280;44218;55.250;30.178;2022-10-16T07:54:05;1028.5;;;12;62.5
58421;BME280;44218;55.250;30.178;2022-10-16T07:59:27;1028.4;;;12.1;61.8
58421;BME280;44218;55.250;30.178;2022-10-16T08:04:17;1028.4;;;12.2;62.1
58421;BME280;44218;55.250;30.178;2022-10-16T08:09:27;1028.3;;;12.4;61.5
58421;BME280;44218;55.250;30.178;2022-10-16T08:14:05;1028.3;;;12.5;60.5
58421;BME280;44218;55.250;30.178;2022-10-16T08:18:40;1028.3;;;12.7;59.2
58421;BME280;44218;55.250;30.178;2022-10-16T08:24:29;1028.3;;;12.8;59.4
58421;BME280;44218;55.250;30.178;2022-10-16T08:29:31;1028.3;;;12.9;59.2
58421;BME280;44218;55.250;30.178;2022-10-16T08:33:40;1028.3;;;12.9;58.2
58421;BME280;44218;55.250;30.178;2022-10-16T08:39:15;1028.3;;;13;57.9
58421;BME280;44218;55.250;30.178;2022-10-16T08:44:35;1028.3;;;13;57.3
58421;BME280;44218;55.250;30.178;2022-10-16T08:49:15;1028.3;;;13.2;56.5
58421;BME280;44218;55.250;30.178;2022-10-16T08:54:15;1028.3;;;13.2;57.1
58421;BME280;44218;55.250;30.178;2022-10-16T08:59:29;1028.3;;;13.3;56.7
58421;BME280;44218;55.250;30.178;2022-10-16T09:04:07;1028.4;;;13.5;56.1
58421;BME280;44218;55.250;30.178;2022-10-16T09:08:42;1028.5;;;13.7;56.5
58421;BME280;44218;55.250;30.178;2022-10-16T09:14:34;1028.5;;;13.9;55.6
58421;BME280;44218;55.250;30.178;2022-10-16T09:19:30;1028.5;;;14.1;55.6
58421;BME280;44218;55.250;30.178;2022-10-16T09:24:30;1028.5;;;14.2;54.5
58421;BME280;44218;55.250;30.178;2022-10-16T09:28:48;1028.5;;;14.3;53.3
58421;BME280;44218;55.250;30.178;2022-10-16T09:34:30;1028.4;;;14.6;52.8
58421;BME280;44218;55.250;30.178;2022-10-16T09:39:41;1028.3;;;14.8;53.7
58421;BME280;44218;55.250;30.178;2022-10-16T09:44:04;1028.3;;;15.1;52.6
58421;BME280;44218;55.250;30.178;2022-10-16T09:49:04;1028.3;;;15.1;51.9
58421;BME280;44218;55.250;30.178;2022-10-16T09:53:41;1028.4;;;15;52
58421;BME280;44218;55.250;30.178;2022-10-16T09:58:43;1028.4;;;14.8;50.9
58421;BME280;44218;55.250;30.178;2022-10-16T10:04:18;1028.4;;;14.7;51
58421;BME280;44218;55.250;30.178;2022-10-16T10:09:06;1028.2;;;14.9;50.3
58421;BME280;44218;55.250;30.178;2022-10-16T10:14:32;1028.2;;;15;49.4
58421;BME280;44218;55.250;30.178;2022-10-16T10:19:18;1028.2;;;15.1;50
58421;BME280;44218;55.250;30.178;2022-10-16T10:23:55;1028.1;;;15.3;49.4
58421;BME280;44218;55.250;30.178;2022-10-16T10:29:36;1028.1;;;15.3;49.2
58421;BME280;44218;55.250;30.178;2022-10-16T10:34:22;1028;;;15.2;47.7
58421;BME280;44218;55.250;30.178;2022-10-16T10:39:30;1028.1;;;15.2;48.5
58421;BME280;44218;55.250;30.178;2022-10-16T10:44:07;1028.2;;;15.3;49.3
58421;BME280;44218;55.250;30.178;2022-10-16T10:49:00;1028.2;;;15.3;48.4
58421;BME280;44218;55.250;30.178;2022-10-16T10:54:32;1028.3;;;15.4;48
58421;BME280;44218;55.250;30.178;2022-10-16T10:59:25;1028.2;;;15.5;48.1
58421;BME280;44218;55.250;30.178;2022-10-16T11:03:57;1028.2;;;15.5;47.8
58421;BME280;44218;55.250;30.178;2022-10-16T11:09:09;1028.2;;;15.5;47.1
58421;BME280;44218;55.250;30.178;2022-10-16T11:14:17;1028.1;;;15.5;47.3
58421;BME280;44218;55.250;30.178;2022-10-16T11:18:52;1028.2;;;15.5;47.3
58421;BME280;44218;55.250;30.178;2022-10-16T11:24:35;1028.1;;;15.6;47.6
58421;BME280;44218;55.250;30.178;2022-10-16T11:29:32;1028.1;;;15.7;48
58421;BME280;44218;55.250;30.178;2022-10-16T11:33:41;1028.1;;;15.7;47.5
58421;BME280;44218;55.250;30.178;2022-10-16T11:38:41;1028;;;15.6;47
58421;BME280;44218;55.250;30.178;2022-10-16T11:44:48;1028;;;15.6;47.1
58421;BME280;44218;55.250;30.178;2022-10-16T11:49:30;1028;;;15.6;47.7
58421;BME280;44218;55.250;30.178;2022-10-16T11:54:32;1028;;;15.7;47.7
58421;BME280;44218;55.250;30.178;2022-10-16T11:59:06;1028;;;15.7;47.2
58421;BME280;44218;55.250;30.178;2022-10-16T12:03:40;1028;;;15.7;47.4
58421;BME280;44218;55.250;30.178;2022-10-16T12:09:18;1027.9;;;15.7;46.6
58421;BME280;44218;55.250;30.178;2022-10-16T12:14:35;1027.9;;;15.6;46.7
58421;BME280;44218;55.250;30.178;2022-10-16T12:19:10;1027.9;;;15.7;46.6
58421;BME280;44218;55.250;30.178;2022-10-16T12:23:46;1027.9;;;15.7;46.6
58421;BME280;44218;55.250;30.178;2022-10-16T12:28:40;1028;;;15.7;46.3
58421;BME280;44218;55.250;30.178;2022-10-16T12:33:56;1027.9;;;15.6;45.8
58421;BME280;44218;55.250;30.178;2022-10-16T12:39:06;1027.8;;;15.6;46.3
58421;BME280;44218;55.250;30.178;2022-10-16T12:44:04;1027.8;;;15.5;45.9
58421;BME280;44218;55.250;30.178;2022-10-16T12:49:14;1027.8;;;15.5;46.3
58421;BME280;44218;55.250;30.178;2022-10-16T12:54:34;1027.8;;;15.4;46.4
58421;BME280;44218;55.250;30.178;2022-10-16T12:59:16;1027.8;;;15.2;46.6
58421;BME280;44218;55.250;30.178;2022-10-16T13:04:31;1027.8;;;15;46.9
58421;BME280;44218;55.250;30.178;2022-10-16T13:09:33;1027.8;;;14.9;47.2
58421;BME280;44218;55.250;30.178;2022-10-16T13:13:59;1027.8;;;14.7;47.7
58421;BME280;44218;55.250;30.178;2022-10-16T13:18:56;1027.8;;;14.6;47.6
58421;BME280;44218;55.250;30.178;2022-10-16T13:23:42;1027.8;;;14.6;49.7
58421;BME280;44218;55.250;30.178;2022-10-16T13:29:30;1027.8;;;14.4;48
58421;BME280;44218;55.250;30.178;2022-10-16T13:33:58;1027.8;;;14.4;47.9
58421;BME280;44218;55.250;30.178;2022-10-16T13:39:21;1027.8;;;14.4;48
58421;BME280;44218;55.250;30.178;2022-10-16T13:43:42;1027.8;;;14.3;48.8
58421;BME280;44218;55.250;30.178;2022-10-16T13:49:20;1027.9;;;14.2;48.1
58421;BME280;44218;55.250;30.178;2022-10-16T13:54:09;1028;;;14.2;48
58421;BME280;44218;55.250;30.178;2022-10-16T13:59:22;1028;;;14.1;48.5
58421;BME280;44218;55.250;30.178;2022-10-16T14:03:52;1028.1;;;14;48.3
58421;BME280;44218;55.250;30.178;2022-10-16T14:08:53;1028.1;;;14;49.2
58421;BME280;44218;55.250;30.178;2022-10-16T14:13:56;1028.1;;;13.9;49.3
58421;BME280;44218;55.250;30.178;2022-10-16T14:19:32;1028.1;;;13.9;50
58421;BME280;44218;55.250;30.178;2022-10-16T14:24:10;1028.1;;;13.9;50.1
58421;BME280;44218;55.250;30.178;2022-10-16T14:29:04;1028;;;13.8;50.3
58421;BME280;44218;55.250;30.178;2022-10-16T14:33:56;1028;;;13.6;50.3
58421;BME280;44218;55.250;30.178;2022-10-16T14:39:20;1028;;;13.6;50
58421;BME280;44218;55.250;30.178;2022-10-16T14:44:32;1028;;;13.5;50.6
58421;BME280;44218;55.250;30.178;2022-10-16T14:49:13;1027.9;;;13.4;50.6
58421;BME280;44218;55.250;30.178;2022-10-16T14:53:50;1027.9;;;13.4;50.1
58421;BME280;44218;55.250;30.178;2022-10-16T14:58:54;1027.9;;;13.3;50.1
58421;BME280;44218;55.250;30.178;2022-10-16T15:03:40;1027.9;;;13.3;51
58421;BME280;44218;55.250;30.178;2022-10-16T15:09:06;1028;;;13.3;50.6
58421;BME280;44218;55.250;30.178;2022-10-16T15:14:08;1028;;;13.2;50.5
58421;BME280;44218;55.250;30.178;2022-10-16T15:19:20;1027.9;;;13.2;50.6
58421;BME280;44218;55.250;30.178;2022-10-16T15:24:34;1027.9;;;13.1;51.2
58421;BME280;44218;55.250;30.178;2022-10-16T15:28:40;1027.9;;;13;50.7
58421;BME280;44218;55.250;30.178;2022-10-16T15:34:30;1028;;;13;51
58421;BME280;44218;55.250;30.178;2022-10-16T15:39:32;1028.1;;;12.9;50.8
58421;BME280;44218;55.250;30.178;2022-10-16T15:44:06;1028.1;;;12.9;50.2
58421;BME280;44218;55.250;30.178;2022-10-16T15:48:40;1028.1;;;12.9;50.1
58421;BME280;44218;55.250;30.178;2022-10-16T15:53:40;1028.1;;;12.8;50.4
58421;BME280;44218;55.250;30.178;2022-10-16T15:59:18;1028;;;12.7;50.4
58421;BME280;44218;55.250;30.178;2022-10-16T16:04:20;1028;;;12.6;50.8
58421;BME280;44218;55.250;30.178;2022-10-16T16:09:20;1028;;;12.6;50.5
58421;BME280;44218;55.250;30.178;2022-10-16T16:14:18;1028.1;;;12.5;50.3
58421;BME280;44218;55.250;30.178;2022-10-16T16:19:18;1028.1;;;12.5;50.6
58421;BME280;44218;55.250;30.178;2022-10-16T16:23:40;1028.1;;;12.4;50.6
58421;BME280;44218;55.250;30.178;2022-10-16T16:29:16;1028.1;;;12.3;50.2
58421;BME280;44218;55.250;30.178;2022-10-16T16:33:40;1028.1;;;12.3;50.7
58421;BME280;44218;55.250;30.178;2022-10-16T16:38:56;1028.1;;;12.3;50.7
58421;BME280;44218;55.250;30.178;2022-10-16T16:43:54;1028.1;;;12.2;50.8
58421;BME280;44218;55.250;30.178;2022-10-16T16:49:32;1028.2;;;12.2;51.1
58421;BME280;44218;55.250;30.178;2022-10-16T16:54:30;1028.2;;;12.2;51.1
58421;BME280;44218;55.250;30.178;2022-10-16T16:59:30;1028.2;;;12.1;51.3
58421;BME280;44218;55.250;30.178;2022-10-16T17:04:05;1028.2;;;12.2;50.9
58421;BME280;44218;55.250;30.178;2022-10-16T17:09:28;1028.2;;;12.1;51.6
58421;BME280;44218;55.250;30.178;2022-10-16T17:14:32;1028.2;;;12.1;51.4
58421;BME280;44218;55.250;30.178;2022-10-16T17:19:03;1028.2;;;12.1;51.3
58421;BME280;44218;55.250;30.178;2022-10-16T17:24:02;1028.3;;;12.1;51.5
58421;BME280;44218;55.250;30.178;2022-10-16T17:28:40;1028.2;;;12;52.6
58421;BME280;44218;55.250;30.178;2022-10-16T17:33:50;1028.2;;;12;52.8
58421;BME280;44218;55.250;30.178;2022-10-16T17:39:06;1028.1;;;11.9;53.1
58421;BME280;44218;55.250;30.178;2022-10-16T17:43:50;1028.2;;;11.8;52.9
58421;BME280;44218;55.250;30.178;2022-10-16T17:49:28;1028.2;;;11.8;52.8
58421;BME280;44218;55.250;30.178;2022-10-16T17:54:18;1028.2;;;11.7;52.8
58421;BME280;44218;55.250;30.178;2022-10-16T17:59:06;1028.2;;;11.7;52.9
58421;BME280;44218;55.250;30.178;2022-10-16T18:04:30;1028.1;;;11.7;52.7
58421;BME280;44218;55.250;30.178;2022-10-16T18:09:14;1028.1;;;11.7;53.6
58421;BME280;44218;55.250;30.178;2022-10-16T18:14:28;1028;;;11.6;53.2
58421;BME280;44218;55.250;30.178;2022-10-16T18:18:40;1028;;;11.6;53.6
58421;BME280;44218;55.250;30.178;2022-10-16T18:24:06;1028;;;11.5;54.5
58421;BME280;44218;55.250;30.178;2022-10-16T18:29:28;1028;;;11.5;54
58421;BME280;44218;55.250;30.178;2022-10-16T18:34:18;1028;;;11.5;54
58421;BME280;44218;55.250;30.178;2022-10-16T18:38:52;1028;;;11.4;54
58421;BME280;44218;55.250;30.178;2022-10-16T18:44:08;1028;;;11.5;54.3
58421;BME280;44218;55.250;30.178;2022-10-16T18:49:16;1027.9;;;11.4;54
58421;BME280;44218;55.250;30.178;2022-10-16T18:53:49;1028;;;11.5;54.1
58421;BME280;44218;55.250;30.178;2022-10-16T18:59:18;1028;;;11.5;54
58421;BME280;44218;55.250;30.178;2022-10-16T19:04:30;1027.9;;;11.5;54.4
58421;BME280;44218;55.250;30.178;2022-10-16T19:08:40;1028;;;11.5;53.9
58421;BME280;44218;55.250;30.178;2022-10-16T19:13:55;1027.9;;;11.5;54.1
58421;BME280;44218;55.250;30.178;2022-10-16T19:19:28;1028;;;11.4;54.3
58421;BME280;44218;55.250;30.178;2022-10-16T19:24:28;1027.9;;;11.5;54.3
58421;BME280;44218;55.250;30.178;2022-10-16T19:29:30;1027.9;;;11.5;53.5
58421;BME280;44218;55.250;30.178;2022-10-16T19:34:06;1028;;;11.5;53.5
58421;BME280;44218;55.250;30.178;2022-10-16T19:39:26;1028.1;;;11.6;54
58421;BME280;44218;55.250;30.178;2022-10-16T19:44:13;1028.1;;;11.6;54
58421;BME280;44218;55.250;30.178;2022-10-16T19:49:03;1028.1;;;11.6;53.4
58421;BME280;44218;55.250;30.178;2022-10-16T19:54:05;1028.1;;;11.7;53.9
58421;BME280;44218;55.250;30.178;2022-10-16T19:58:50;1028;;;11.6;53.5
58421;BME280;44218;55.250;30.178;2022-10-16T20:03:41;1027.9;;;11.6;53.9
58421;BME280;44218;55.250;30.178;2022-10-16T20:09:04;1027.9;;;11.7;53.5
58421;BME280;44218;55.250;30.178;2022-10-16T20:14:06;1027.9;;;11.6;53.6
58421;BME280;44218;55.250;30.178;2022-10-16T20:19:28;1027.9;;;11.7;53.4
58421;BME280;44218;55.250;30.178;2022-10-16T20:24:14;1027.9;;;11.7;53.1
58421;BME280;44218;55.250;30.178;2022-10-16T20:29:04;1027.9;;;11.7;53.3
58421;BME280;44218;55.250;30.178;2022-10-16T20:34:30;1027.9;;;11.6;53.1
58421;BME280;44218;55.250;30.178;2022-10-16T20:39:18;1027.8;;;11.6;53.3
58421;BME280;44218;55.250;30.178;2022-10-16T20:44:30;1027.8;;;11.6;53.1
58421;BME280;44218;55.250;30.178;2022-10-16T20:48:40;1027.8;;;11.6;52.8
58421;BME280;44218;55.250;30.178;2022-10-16T20:53:56;1027.8;;;11.6;52.9
58421;BME280;44218;55.250;30.178;2022-10-16T20:59:30;1027.8;;;11.6;52.7
58421;BME280;44218;55.250;30.178;2022-10-16T21:04:18;1027.7;;;11.5;53.2
58421;BME280;44218;55.250;30.178;2022-10-16T21:09:06;1027.7;;;11.5;53.8
58421;BME280;44218;55.250;30.178;2022-10-16T21:14:20;1027.7;;;11.4;53.4
58421;BME280;44218;55.250;30.178;2022-10-16T21:19:20;1027.7;;;11.3;53.6
58421;BME280;44218;55.250;30.178;2022-10-16T21:24:16;1027.7;;;11.3;54
58421;BME280;44218;55.250;30.178;2022-10-16T21:29:04;1027.7;;;11.3;53.9
58421;BME280;44218;55.250;30.178;2022-10-16T21:34:16;1027.6;;;11.3;53.8
58421;BME280;44218;55.250;30.178;2022-10-16T21:38:40;1027.5;;;11.3;53.7
58421;BME280;44218;55.250;30.178;2022-10-16T21:43:54;1027.5;;;11.3;53.8
58421;BME280;44218;55.250;30.178;2022-10-16T21:48:40;1027.5;;;11.3;53.8
58421;BME280;44218;55.250;30.178;2022-10-16T21:54:30;1027.6;;;11.4;53.3
58421;BME280;44218;55.250;30.178;2022-10-16T21:58:42;1027.7;;;11.4;53.5
58421;BME280;44218;55.250;30.178;2022-10-16T22:04:18;1027.6;;;11.4;53.4
58421;BME280;44218;55.250;30.178;2022-10-16T22:09:04;1027.6;;;11.4;53.9
58421;BME280;44218;55.250;30.178;2022-10-16T22:13:52;1027.6;;;11.4;53.5
58421;BME280;44218;55.250;30.178;2022-10-16T22:19:32;1027.6;;;11.4;53.7
58421;BME280;44218;55.250;30.178;2022-10-16T22:24:18;1027.5;;;11.4;54.1
58421;BME280;44218;55.250;30.178;2022-10-16T22:29:06;1027.5;;;11.4;54.4
58421;BME280;44218;55.250;30.178;2022-10-16T22:33:54;1027.4;;;11.4;53.9
